Time;durP1;ratioP1;P1;durP2;ratioP2;P2;SDS_P1;SDS_P2;PMS_P1;PMS_P2;Temp;Humidity;BMP_temperature;BMP_pressure;BME280_temperature;BME280_humidity;BME280_pressure;Samples;Min_cycle;Max_cycle;Signal;HPM_P1;HPM_P2
2022/01/21 00:01:14;;;;;;;13.82;1.77;;;;;;;4.18;80.06;103363.50;5057181;28;20041;-77
2022/01/21 00:03:40;;;;;;;15.48;2.50;;;;;;;4.10;80.63;103368.56;5047843;28;20032;-77
2022/01/21 00:06:07;;;;;;;13.15;2.35;;;;;;;4.28;79.50;103374.25;5037826;28;20044;-77
2022/01/21 00:08:34;;;;;;;15.32;3.30;;;;;;;4.19;79.60;103369.63;5057673;28;20033;-76
2022/01/21 00:11:02;;;;;;;13.75;2.15;;;;;;;4.14;79.08;103370.03;5051606;28;20068;-76
2022/01/21 00:13:34;;;;;;;15.90;2.33;;;;;;;3.90;80.37;103376.41;5057328;28;20089;-76
2022/01/21 00:16:11;;;;;;;15.77;2.00;;;;;;;4.30;79.29;103364.31;5055237;28;20052;-76
2022/01/21 00:18:39;;;;;;;11.88;2.03;;;;;;;4.28;78.85;103374.25;5054448;28;20120;-76
2022/01/21 00:32:04;;;;;;;13.87;2.30;;;;;;;3.81;80.65;103379.81;5045452;28;20044;-77
2022/01/21 00:34:29;;;;;;;15.82;2.35;;;;;;;3.61;80.99;103378.69;5033467;28;20045;-77
2022/01/21 00:36:55;;;;;;;12.20;2.53;;;;;;;3.89;79.59;103375.56;5033245;28;20044;-77
2022/01/21 00:39:24;;;;;;;16.95;2.50;;;;;;;4.14;78.72;103374.50;5038265;28;20199;-76
2022/01/21 00:41:59;;;;;;;18.57;2.80;;;;;;;4.01;79.22;103371.13;5035529;28;20056;-77
2022/01/21 00:44:25;;;;;;;15.67;4.13;;;;;;;4.07;78.52;103370.63;5037479;28;20087;-77
2022/01/21 00:46:50;;;;;;;7.83;2.83;;;;;;;3.90;79.05;103373.75;5052647;28;20451;-78
2022/01/21 00:49:16;;;;;;;9.45;1.98;;;;;;;4.18;78.75;103379.47;5053871;28;20105;-76
2022/01/21 00:51:42;;;;;;;12.25;2.72;;;;;;;4.13;78.76;103386.94;5040408;28;20026;-76
2022/01/21 00:54:07;;;;;;;12.48;1.73;;;;;;;4.40;78.23;103373.28;5044823;28;20099;-76
2022/01/21 00:56:33;;;;;;;12.07;2.60;;;;;;;4.55;77.84;103376.50;5053428;28;20431;-76
2022/01/21 00:58:58;;;;;;;14.88;1.65;;;;;;;4.43;76.86;103378.34;5053332;28;20032;-76
2022/01/21 01:01:24;;;;;;;14.68;2.92;;;;;;;4.11;79.30;103380.91;5053954;28;20033;-76
2022/01/21 01:03:49;;;;;;;20.23;2.55;;;;;;;3.74;81.08;103402.50;5043034;28;20444;-77
2022/01/21 01:06:14;;;;;;;18.17;1.92;;;;;;;3.58;81.21;103423.28;5045563;28;20033;-77
2022/01/21 01:08:40;;;;;;;15.85;2.25;;;;;;;3.66;82.07;103412.88;5053563;28;20104;-78
2022/01/21 01:21:47;;;;;;;7.47;1.05;;;;;;;3.85;81.05;103410.50;5052588;28;20107;-76
2022/01/21 01:29:40;;;;;;;5.73;1.40;;;;;;;4.07;80.42;103395.41;5048002;28;20268;-76
2022/01/21 01:32:06;;;;;;;12.88;2.22;;;;;;;4.43;79.71;103389.84;5033347;28;20389;-77
2022/01/21 01:34:32;;;;;;;5.05;1.48;;;;;;;4.19;81.09;103396.25;5037863;28;20054;-77
2022/01/21 01:37:01;;;;;;;4.38;1.80;;;;;;;4.20;81.21;103392.63;5032319;28;20485;-76
2022/01/21 01:39:34;;;;;;;12.30;1.90;;;;;;;4.02;81.04;103391.41;5038044;28;20140;-77
2022/01/21 01:50:34;;;;;;;10.52;1.60;;;;;;;3.86;81.73;103399.75;4974108;28;20057;-77
2022/01/21 01:52:59;;;;;;;7.90;1.40;;;;;;;3.85;82.45;103394.56;4990966;28;20485;-75
2022/01/21 01:55:25;;;;;;;7.07;2.17;;;;;;;3.81;82.59;103393.09;4976186;28;20051;-76
2022/01/21 01:57:50;;;;;;;5.63;1.65;;;;;;;3.53;83.37;103381.94;4989712;28;20034;-76
2022/01/21 02:00:16;;;;;;;4.90;1.35;;;;;;;3.68;83.23;103381.69;4984752;28;20065;-76
2022/01/21 02:02:41;;;;;;;8.07;1.98;;;;;;;3.87;82.49;103392.63;4986091;28;20042;-76
2022/01/21 02:05:07;;;;;;;8.82;1.33;;;;;;;3.91;81.68;103392.25;4974225;28;20053;-77
2022/01/21 02:07:33;;;;;;;9.05;1.52;;;;;;;3.86;81.75;103385.59;4970630;28;20039;-76
2022/01/21 02:09:58;;;;;;;9.43;1.80;;;;;;;3.87;81.38;103380.16;4987748;28;20074;-75
2022/01/21 02:12:24;;;;;;;5.15;1.25;;;;;;;3.91;81.25;103381.59;4988388;28;20046;-76
2022/01/21 02:14:52;;;;;;;6.82;1.83;;;;;;;4.18;80.30;103383.94;4971791;28;20050;-76
2022/01/21 02:22:43;;;;;;;8.13;1.00;;;;;;;3.90;80.82;103377.25;5021709;28;20071;-75
2022/01/21 02:25:18;;;;;;;5.22;1.20;;;;;;;4.05;80.18;103378.72;5048292;28;20127;-75
2022/01/21 02:27:46;;;;;;;12.68;1.80;;;;;;;3.90;80.88;103363.97;5044767;28;20045;-77
2022/01/21 02:30:19;;;;;;;4.82;1.27;;;;;;;4.12;80.29;103360.47;5036462;28;20029;-77
2022/01/21 02:32:50;;;;;;;7.72;1.10;;;;;;;3.92;80.02;103375.34;5052520;28;20029;-76
2022/01/21 02:35:17;;;;;;;3.80;1.63;;;;;;;3.99;80.80;103378.38;5051574;28;20052;-77
2022/01/21 02:37:42;;;;;;;13.50;2.03;;;;;;;4.09;79.70;103374.84;5044454;28;20082;-76
2022/01/21 02:40:09;;;;;;;7.00;1.40;;;;;;;4.07;79.99;103371.47;5036578;28;20432;-78
2022/01/21 02:42:35;;;;;;;3.30;1.02;;;;;;;4.00;80.09;103366.75;5041840;28;20166;-77
2022/01/21 02:45:02;;;;;;;8.10;1.50;;;;;;;4.14;79.56;103378.00;5051481;28;20555;-76
2022/01/21 02:47:27;;;;;;;8.48;2.20;;;;;;;3.96;79.83;103375.94;5051855;28;20492;-77
2022/01/21 02:49:53;;;;;;;5.95;1.13;;;;;;;4.12;79.31;103368.44;5032461;28;20049;-77
2022/01/21 02:52:22;;;;;;;8.65;1.35;;;;;;;3.76;79.85;103368.66;5031895;28;20098;-77
2022/01/21 02:54:48;;;;;;;9.15;1.52;;;;;;;4.04;80.37;103370.88;5042408;28;20056;-76
2022/01/21 02:57:13;;;;;;;5.35;1.30;;;;;;;3.93;80.26;103378.84;5051542;28;20041;-77
2022/01/21 02:59:38;;;;;;;5.63;1.52;;;;;;;4.10;79.98;103381.03;5034856;28;20477;-77
2022/01/21 03:02:04;;;;;;;10.32;1.45;;;;;;;4.20;79.88;103382.84;5013816;28;20036;-77
2022/01/21 03:07:15;;;;;;;4.10;1.48;;;;;;;3.95;80.38;103392.88;4950487;28;20475;-77
2022/01/21 03:09:40;;;;;;;6.90;1.38;;;;;;;4.16;80.08;103389.38;4967297;28;20093;-77
2022/01/21 03:12:06;;;;;;;4.85;1.60;;;;;;;4.33;79.17;103396.88;4971091;28;20093;-76
2022/01/21 03:14:32;;;;;;;10.45;1.58;;;;;;;4.51;78.66;103397.22;4970775;28;20043;-76
2022/01/21 03:16:57;;;;;;;16.00;2.20;;;;;;;4.68;77.29;103399.34;4970069;28;20042;-75
2022/01/21 03:19:23;;;;;;;5.95;1.00;;;;;;;4.15;79.00;103398.31;4969959;28;20046;-76
2022/01/21 03:21:48;;;;;;;11.52;2.83;;;;;;;3.99;79.46;103394.34;4969968;28;20545;-75
2022/01/21 03:24:13;;;;;;;8.43;1.27;;;;;;;3.73;80.73;103399.00;4969890;28;20190;-77
2022/01/21 03:26:39;;;;;;;5.07;1.90;;;;;;;3.90;80.37;103395.88;4970821;28;20075;-77
2022/01/21 03:29:05;;;;;;;10.38;1.30;;;;;;;3.99;80.23;103407.63;4969618;28;20081;-76
2022/01/21 03:31:31;;;;;;;6.47;1.17;;;;;;;3.96;80.33;103400.72;4970242;28;20411;-76
2022/01/21 03:33:59;;;;;;;11.95;3.15;;;;;;;4.13;79.54;103388.75;4970451;28;20043;-76
2022/01/21 03:36:26;;;;;;;11.18;1.95;;;;;;;4.10;80.50;103391.66;4969409;28;20181;-75
2022/01/21 03:38:52;;;;;;;13.05;1.95;;;;;;;4.06;80.17;103393.72;4970416;28;20460;-76
2022/01/21 03:41:17;;;;;;;10.00;1.55;;;;;;;3.96;80.76;103386.56;4969940;28;20075;-76
2022/01/21 03:43:43;;;;;;;8.20;1.73;;;;;;;3.92;81.26;103385.13;4985709;28;20042;-77
2022/01/21 03:46:08;;;;;;;8.50;2.08;;;;;;;3.96;80.63;103389.22;5035070;28;20046;-76
2022/01/21 03:48:34;;;;;;;14.57;1.40;;;;;;;4.14;79.57;103385.13;5030556;28;20060;-75
2022/01/21 03:51:00;;;;;;;14.38;1.80;;;;;;;3.99;80.77;103386.34;5031945;28;20076;-75
2022/01/21 03:53:25;;;;;;;10.65;1.55;;;;;;;4.04;80.00;103384.16;5040786;28;20021;-77
2022/01/21 03:55:51;;;;;;;13.45;2.60;;;;;;;3.96;80.33;103384.78;5052204;28;20102;-75
2022/01/21 03:58:16;;;;;;;10.55;1.33;;;;;;;3.90;81.14;103387.91;5043267;28;20061;-77
2022/01/21 04:00:49;;;;;;;5.28;1.10;;;;;;;3.82;81.22;103385.00;5038877;28;20109;-77
2022/01/21 04:03:16;;;;;;;5.85;1.35;;;;;;;3.81;81.20;103385.13;5053271;28;20231;-76
2022/01/21 04:05:41;;;;;;;6.05;1.52;;;;;;;3.88;81.08;103381.84;5034721;28;20396;-76
2022/01/21 04:08:08;;;;;;;14.88;2.35;;;;;;;3.77;81.97;103389.84;5050270;28;20122;-77
2022/01/21 04:10:35;;;;;;;8.43;1.75;;;;;;;3.83;81.98;103388.50;5053980;28;20029;-76
2022/01/21 04:13:07;;;;;;;12.40;1.90;;;;;;;3.87;81.74;103384.66;5049088;28;20110;-78
2022/01/21 04:15:32;;;;;;;10.82;1.38;;;;;;;3.89;81.18;103372.91;5054516;28;20519;-76
2022/01/21 04:17:57;;;;;;;7.53;1.83;;;;;;;3.87;81.32;103372.16;5053430;28;20036;-76
2022/01/21 04:20:23;;;;;;;2.80;0.90;;;;;;;3.73;81.63;103374.22;5052746;28;20040;-76
2022/01/21 04:22:48;;;;;;;6.57;1.08;;;;;;;3.76;81.58;103373.97;5034632;28;20164;-77
2022/01/21 04:25:14;;;;;;;8.25;1.55;;;;;;;3.76;81.32;103371.31;5034240;28;20061;-77
2022/01/21 04:27:39;;;;;;;5.18;1.30;;;;;;;3.88;81.26;103367.72;5033980;28;20388;-76
2022/01/21 04:30:07;;;;;;;9.20;1.40;;;;;;;3.62;81.84;103366.25;5038421;28;20048;-76
2022/01/21 04:32:32;;;;;;;8.82;1.70;;;;;;;3.76;82.04;103361.53;5034256;28;20108;-77
2022/01/21 04:34:58;;;;;;;10.13;1.23;;;;;;;3.82;81.47;103366.38;5036940;28;20033;-76
2022/01/21 04:37:23;;;;;;;11.35;2.33;;;;;;;3.85;81.00;103371.47;5034048;28;20397;-76
2022/01/21 04:39:55;;;;;;;10.07;1.58;;;;;;;3.97;80.63;103374.97;5033971;28;20034;-76
2022/01/21 04:47:38;;;;;;;13.52;3.10;;;;;;;3.85;80.58;103370.63;5034243;28;20051;-76
2022/01/21 04:50:10;;;;;;;13.50;1.80;;;;;;;3.77;81.18;103381.84;5039728;28;20037;-77
2022/01/21 04:52:35;;;;;;;8.00;2.05;;;;;;;3.67;81.25;103386.19;5033964;28;20363;-77
2022/01/21 04:55:00;;;;;;;9.75;1.77;;;;;;;3.69;80.97;103386.06;5047315;28;20048;-77
2022/01/21 04:57:26;;;;;;;5.55;1.02;;;;;;;3.74;81.03;103382.06;5040771;28;20485;-77
2022/01/21 04:59:52;;;;;;;10.40;1.23;;;;;;;3.74;81.54;103384.75;5047755;28;20040;-76
2022/01/21 05:02:17;;;;;;;6.22;1.45;;;;;;;3.77;81.51;103387.19;5050129;28;20045;-77
2022/01/21 05:04:43;;;;;;;9.48;1.10;;;;;;;3.71;81.83;103389.44;5043583;28;20052;-76
2022/01/21 05:07:11;;;;;;;16.05;1.50;;;;;;;3.75;81.92;103391.75;5052983;28;20121;-77
2022/01/21 05:09:36;;;;;;;13.48;2.03;;;;;;;3.90;81.14;103384.38;5049691;28;20123;-77
2022/01/21 05:12:08;;;;;;;8.18;1.20;;;;;;;4.01;81.20;103389.75;5040601;28;20525;-77
2022/01/21 05:14:50;;;;;;;11.23;1.40;;;;;;;4.10;81.21;103391.66;5034385;28;20029;-76
2022/01/21 05:17:16;;;;;;;10.35;1.70;;;;;;;3.98;80.67;103388.16;5038245;28;20132;-76
2022/01/21 05:19:42;;;;;;;7.63;1.50;;;;;;;3.87;81.67;103384.66;5044368;28;20048;-77
2022/01/21 05:22:07;;;;;;;10.48;1.40;;;;;;;3.84;82.45;103387.53;5034397;28;20030;-76
2022/01/21 05:24:33;;;;;;;10.35;1.67;;;;;;;4.07;81.91;103386.59;5041002;28;20074;-76
2022/01/21 05:27:00;;;;;;;5.50;2.38;;;;;;;3.97;81.74;103389.09;5053444;28;20033;-76
2022/01/21 05:29:28;;;;;;;11.05;2.42;;;;;;;4.11;81.45;103391.53;5054106;28;20445;-77
2022/01/21 05:31:54;;;;;;;8.98;1.55;;;;;;;4.24;80.44;103392.28;5052426;28;20040;-77
2022/01/21 05:34:19;;;;;;;8.82;2.38;;;;;;;4.07;81.37;103395.41;5046667;28;20088;-77
2022/01/21 05:36:46;;;;;;;7.90;1.35;;;;;;;4.12;80.93;103395.06;5032955;28;20044;-78
2022/01/21 05:39:13;;;;;;;8.73;1.33;;;;;;;4.07;81.76;103384.75;5034848;28;20489;-78
2022/01/21 05:41:39;;;;;;;10.50;2.08;;;;;;;4.03;81.99;103391.28;5052778;28;20170;-76
2022/01/21 05:44:15;;;;;;;8.23;1.50;;;;;;;4.19;81.18;103396.25;5032991;28;20041;-76
2022/01/21 05:46:55;;;;;;;12.65;1.52;;;;;;;4.00;81.35;103401.34;5032577;28;20037;-77
2022/01/21 05:49:22;;;;;;;7.63;1.15;;;;;;;4.10;81.86;103399.66;5052682;28;20048;-77
2022/01/21 05:51:48;;;;;;;9.15;1.08;;;;;;;4.25;81.10;103391.31;5039125;28;20036;-76
2022/01/21 05:54:13;;;;;;;11.30;1.77;;;;;;;4.31;80.21;103397.94;5032568;28;20052;-76
2022/01/21 05:56:39;;;;;;;5.15;1.25;;;;;;;4.11;81.63;103401.31;5033450;28;20029;-78
2022/01/21 05:59:06;;;;;;;6.18;0.77;;;;;;;4.39;79.69;103396.38;5048097;28;20072;-77
2022/01/21 06:01:34;;;;;;;5.93;1.20;;;;;;;4.43;79.41;103407.63;5047018;28;20116;-76
2022/01/21 06:04:01;;;;;;;7.15;0.82;;;;;;;4.52;79.51;103395.41;5048282;28;20025;-77
2022/01/21 06:06:28;;;;;;;3.25;1.10;;;;;;;4.37;79.79;103408.09;5047049;28;20036;-77
2022/01/21 06:08:54;;;;;;;5.50;1.20;;;;;;;4.45;80.21;103403.88;5051568;28;20025;-75
2022/01/21 06:11:19;;;;;;;2.90;0.90;;;;;;;4.50;80.21;103408.84;5052375;28;20033;-77
2022/01/21 06:13:46;;;;;;;5.95;1.15;;;;;;;4.50;79.53;103410.66;5050364;28;20056;-77
2022/01/21 06:16:11;;;;;;;6.60;1.20;;;;;;;4.45;80.61;103416.31;5033780;28;20116;-75
2022/01/21 06:18:37;;;;;;;3.60;1.05;;;;;;;4.54;80.24;103407.59;5039862;28;20588;-77
2022/01/21 06:21:03;;;;;;;5.57;1.35;;;;;;;4.52;79.55;103404.22;5045072;28;20025;-76
2022/01/21 06:23:28;;;;;;;13.13;1.45;;;;;;;4.58;80.68;103408.22;5036717;28;20455;-76
2022/01/21 06:25:53;;;;;;;11.18;1.80;;;;;;;4.42;80.82;103419.25;5051312;28;20110;-76
2022/01/21 06:28:19;;;;;;;12.18;1.73;;;;;;;4.46;81.20;103423.38;5031971;28;20059;-77
2022/01/21 06:30:44;;;;;;;10.00;1.98;;;;;;;4.32;82.38;103428.94;5033188;28;20037;-76
2022/01/21 06:33:10;;;;;;;6.35;0.90;;;;;;;4.35;82.47;103420.69;5049375;28;20104;-75
2022/01/21 06:35:35;;;;;;;4.38;1.00;;;;;;;4.60;82.34;103422.25;5049433;28;20033;-77
2022/01/21 06:38:01;;;;;;;9.82;1.38;;;;;;;4.48;82.72;103424.91;5047962;28;20102;-77
2022/01/21 06:40:26;;;;;;;8.23;1.33;;;;;;;4.73;81.37;103417.63;5047221;28;20036;-77
2022/01/21 06:42:52;;;;;;;10.90;1.50;;;;;;;4.78;81.17;103426.94;5045781;28;20038;-76
2022/01/21 06:45:19;;;;;;;10.05;2.13;;;;;;;4.72;81.67;103418.59;5041102;28;20057;-76
2022/01/21 06:47:46;;;;;;;9.45;1.77;;;;;;;4.66;81.77;103433.25;5032008;28;20056;-76
2022/01/21 06:50:11;;;;;;;6.95;2.03;;;;;;;4.68;81.35;103443.78;5035992;28;20492;-75
2022/01/21 06:52:37;;;;;;;3.35;1.23;;;;;;;4.73;81.98;103444.25;5051005;28;20082;-76
2022/01/21 06:55:03;;;;;;;6.32;1.27;;;;;;;4.47;82.60;103441.00;5051182;28;20112;-77
2022/01/21 06:57:29;;;;;;;19.60;1.60;;;;;;;4.57;82.75;103454.44;5044432;28;20034;-76
2022/01/21 06:59:54;;;;;;;7.40;1.38;;;;;;;4.55;82.67;103443.91;5032956;28;20099;-75
2022/01/21 07:02:20;;;;;;;11.07;2.13;;;;;;;4.62;81.97;103453.09;5043375;28;20113;-77
2022/01/21 07:04:46;;;;;;;7.78;1.30;;;;;;;4.66;81.52;103451.88;5040734;28;20078;-76
2022/01/21 07:07:12;;;;;;;19.67;3.03;;;;;;;4.69;80.84;103440.16;5051504;28;20124;-78
2022/01/21 07:09:37;;;;;;;12.32;1.83;;;;;;;4.54;81.00;103439.53;5051557;28;20045;-77
2022/01/21 07:12:03;;;;;;;5.53;1.30;;;;;;;4.51;81.82;103436.28;5031697;28;20030;-75
2022/01/21 07:14:29;;;;;;;9.07;1.10;;;;;;;4.41;81.74;103434.38;5050529;28;20507;-77
2022/01/21 07:16:54;;;;;;;14.52;1.50;;;;;;;4.40;82.47;103434.50;5050782;28;20643;-76
2022/01/21 07:19:20;;;;;;;5.97;1.55;;;;;;;4.37;82.78;103427.59;5050674;28;20044;-77
2022/01/21 07:21:45;;;;;;;18.20;2.97;;;;;;;4.28;82.59;103432.81;5038848;28;20485;-78
2022/01/21 07:24:10;;;;;;;10.98;1.52;;;;;;;4.15;82.82;103442.69;5041506;28;20447;-76
2022/01/21 07:26:36;;;;;;;8.82;1.42;;;;;;;4.28;83.09;103433.66;5052263;28;20068;-78
2022/01/21 07:29:03;;;;;;;9.23;1.73;;;;;;;4.44;83.04;103442.09;5054297;28;20040;-77
2022/01/21 07:31:30;;;;;;;7.85;2.08;;;;;;;4.55;82.77;103451.06;5050201;28;20037;-76
2022/01/21 07:33:55;;;;;;;10.57;2.40;;;;;;;4.53;82.82;103440.53;5054299;28;20380;-77
2022/01/21 07:36:21;;;;;;;13.40;2.13;;;;;;;4.70;82.78;103447.19;5049431;28;20029;-76
2022/01/21 07:38:46;;;;;;;13.18;1.55;;;;;;;4.43;83.53;103444.88;5035142;28;20029;-77
2022/01/21 07:41:12;;;;;;;18.85;2.75;;;;;;;4.80;81.97;103437.44;5053548;28;20032;-77
2022/01/21 07:43:37;;;;;;;9.75;2.17;;;;;;;4.68;82.68;103447.28;5037175;28;20040;-77
2022/01/21 07:46:03;;;;;;;5.35;1.23;;;;;;;4.90;82.65;103443.72;5046262;28;20078;-77
2022/01/21 07:48:29;;;;;;;15.15;1.73;;;;;;;4.96;82.39;103446.75;5041577;28;20068;-76
2022/01/21 07:50:55;;;;;;;10.43;2.55;;;;;;;4.98;82.41;103442.16;5049690;28;20127;-75
2022/01/21 07:53:20;;;;;;;13.82;2.53;;;;;;;4.90;82.19;103446.41;5054132;28;20427;-76
2022/01/21 07:55:50;;;;;;;12.05;2.05;;;;;;;4.89;82.28;103437.59;5054288;28;20029;-75
2022/01/21 07:58:16;;;;;;;22.63;2.90;;;;;;;5.11;81.18;103434.00;5051925;28;20124;-76
2022/01/21 08:00:41;;;;;;;13.07;1.48;;;;;;;5.01;82.41;103439.22;5051274;28;20175;-75
2022/01/21 08:03:07;;;;;;;15.82;3.20;;;;;;;5.13;81.98;103432.88;5045313;28;20037;-77
2022/01/21 08:05:34;;;;;;;7.57;1.83;;;;;;;5.19;81.39;103429.72;5035195;28;20045;-76
2022/01/21 08:07:59;;;;;;;7.70;1.58;;;;;;;5.15;80.72;103422.94;5049191;28;20045;-77
2022/01/21 08:10:25;;;;;;;9.30;1.60;;;;;;;5.09;80.94;103418.13;5048743;28;20091;-77
2022/01/21 08:12:50;;;;;;;9.07;1.35;;;;;;;5.20;80.88;103419.91;5047808;28;20037;-76
2022/01/21 08:15:16;;;;;;;15.15;1.88;;;;;;;5.04;80.89;103414.16;5051716;28;20033;-76
2022/01/21 08:17:42;;;;;;;12.70;1.67;;;;;;;5.20;79.93;103433.22;5037072;28;20507;-77
2022/01/21 08:20:08;;;;;;;17.30;2.55;;;;;;;5.00;80.07;103434.88;5053226;28;20147;-76
2022/01/21 08:22:34;;;;;;;12.20;1.90;;;;;;;4.84;80.74;103433.56;5030531;28;20124;-76
2022/01/21 08:24:59;;;;;;;9.20;1.77;;;;;;;4.99;79.99;103429.69;5033843;28;20575;-76
2022/01/21 08:27:25;;;;;;;10.43;1.73;;;;;;;5.06;80.22;103437.03;5047940;28;20094;-76
2022/01/21 08:29:50;;;;;;;6.00;1.88;;;;;;;4.93;80.69;103440.84;5032815;28;20115;-77
2022/01/21 08:32:16;;;;;;;10.50;1.77;;;;;;;4.98;79.86;103435.97;5046675;28;20060;-78
2022/01/21 08:34:41;;;;;;;12.93;1.77;;;;;;;4.92;81.30;103441.78;5030335;28;20453;-76
2022/01/21 08:37:07;;;;;;;10.65;3.22;;;;;;;4.95;81.06;103439.72;5031275;28;20068;-75
2022/01/21 08:39:32;;;;;;;18.50;3.05;;;;;;;5.01;80.88;103449.06;5039922;28;20052;-74
2022/01/21 08:41:58;;;;;;;10.27;2.13;;;;;;;5.04;81.17;103451.44;5039091;28;20079;-74
2022/01/21 08:44:23;;;;;;;7.75;1.77;;;;;;;5.14;81.01;103452.41;5048351;28;20028;-75
2022/01/21 08:46:49;;;;;;;13.43;1.85;;;;;;;5.21;81.28;103435.75;5050155;28;20029;-75
2022/01/21 08:49:18;;;;;;;14.98;2.10;;;;;;;5.29;81.49;103440.47;5048168;28;20427;-75
2022/01/21 08:51:55;;;;;;;11.88;2.05;;;;;;;5.33;81.53;103437.41;5037422;28;20021;-75
2022/01/21 08:54:26;;;;;;;9.65;1.92;;;;;;;5.35;80.96;103431.94;5049625;28;20496;-78
2022/01/21 08:56:54;;;;;;;19.20;1.85;;;;;;;5.56;80.94;103438.19;5049834;28;20520;-75
2022/01/21 08:59:20;;;;;;;10.55;1.67;;;;;;;5.62;81.13;103444.81;5035855;28;21874;-75
2022/01/21 09:01:46;;;;;;;18.08;3.30;;;;;;;5.65;81.28;103437.38;5029937;28;20104;-75
2022/01/21 09:04:11;;;;;;;16.65;2.30;;;;;;;5.85;79.42;103439.25;5046327;28;20512;-77
2022/01/21 09:06:37;;;;;;;14.57;1.63;;;;;;;5.81;79.97;103434.25;5051421;28;20060;-74
2022/01/21 09:09:03;;;;;;;7.18;1.90;;;;;;;5.73;80.15;103434.94;5050801;28;20037;-74
2022/01/21 09:11:29;;;;;;;14.85;2.00;;;;;;;5.79;79.81;103437.06;5052334;28;20096;-74
2022/01/21 09:13:56;;;;;;;8.90;2.05;;;;;;;5.83;80.93;103446.53;5049129;28;20060;-74
2022/01/21 09:16:21;;;;;;;8.50;1.88;;;;;;;5.80;81.41;103453.91;5050724;28;20048;-74
2022/01/21 09:18:51;;;;;;;9.48;1.75;;;;;;;6.01;81.69;103455.63;5052476;28;20025;-76
2022/01/21 09:21:20;;;;;;;15.30;2.47;;;;;;;6.18;80.78;103459.53;5050517;28;20029;-74
2022/01/21 09:23:49;;;;;;;10.60;2.15;;;;;;;6.29;80.84;103461.28;5051225;28;20058;-74
2022/01/21 09:26:21;;;;;;;16.40;2.15;;;;;;;6.46;80.01;103466.84;5052022;28;20400;-75
2022/01/21 09:28:47;;;;;;;8.45;1.90;;;;;;;6.19;81.40;103466.56;5050290;28;20037;-74
2022/01/21 09:31:14;;;;;;;15.45;2.88;;;;;;;6.45;80.90;103456.25;5049750;28;20032;-74
2022/01/21 09:33:40;;;;;;;18.25;2.90;;;;;;;6.30;81.47;103462.94;5047472;28;20447;-74
2022/01/21 09:36:06;;;;;;;16.92;3.25;;;;;;;6.48;80.64;103458.69;5050592;28;20084;-75
2022/01/21 09:38:32;;;;;;;15.93;2.30;;;;;;;6.53;81.70;103461.78;5051377;28;20504;-74
2022/01/21 09:40:58;;;;;;;14.27;2.05;;;;;;;6.47;81.26;103464.97;5052083;28;20040;-72
2022/01/21 09:43:23;;;;;;;9.23;1.55;;;;;;;6.26;80.84;103462.38;5048751;28;20039;-74
2022/01/21 09:45:52;;;;;;;14.77;2.85;;;;;;;6.37;81.56;103464.94;5046904;28;20545;-74
2022/01/21 09:48:25;;;;;;;17.40;2.08;;;;;;;6.44;80.63;103459.94;5050689;28;20079;-73
2022/01/21 09:50:53;;;;;;;18.05;2.90;;;;;;;6.42;80.53;103454.72;5047330;28;20021;-74
2022/01/21 09:53:25;;;;;;;11.95;1.80;;;;;;;6.19;81.35;103458.56;5049325;28;20037;-73
2022/01/21 09:55:52;;;;;;;18.85;2.60;;;;;;;6.18;81.30;103455.03;5049190;28;20422;-74
2022/01/21 09:58:18;;;;;;;15.15;2.53;;;;;;;6.33;81.08;103463.53;5051734;28;20037;-74
2022/01/21 10:00:44;;;;;;;11.25;1.80;;;;;;;6.21;80.63;103461.94;5049435;28;20415;-74
2022/01/21 10:03:10;;;;;;;12.15;2.00;;;;;;;6.43;80.37;103459.06;5045223;28;20041;-75
2022/01/21 10:05:36;;;;;;;8.63;1.77;;;;;;;6.43;80.53;103466.25;5037455;28;20470;-74
2022/01/21 10:08:03;;;;;;;8.50;1.60;;;;;;;6.44;80.40;103460.78;5040471;28;20605;-75
2022/01/21 10:10:30;;;;;;;14.82;1.85;;;;;;;6.72;79.89;103451.19;5044731;28;20058;-73
2022/01/21 10:13:02;;;;;;;15.30;2.35;;;;;;;6.66;80.66;103457.06;5032516;28;20116;-74
2022/01/21 10:15:27;;;;;;;9.27;2.25;;;;;;;6.69;80.24;103451.44;5043604;28;20094;-74
2022/01/21 10:18:11;;;;;;;11.88;2.80;;;;;;;6.78;80.11;103446.13;5050790;28;20037;-72
2022/01/21 10:20:36;;;;;;;17.55;2.03;;;;;;;6.89;79.33;103453.19;5049533;28;20037;-74
2022/01/21 10:23:08;;;;;;;24.17;2.80;;;;;;;7.07;79.18;103454.22;5050214;28;20041;-75
2022/01/21 10:25:35;;;;;;;20.63;3.58;;;;;;;7.13;79.07;103442.13;5048539;28;20060;-75
2022/01/21 10:28:24;;;;;;;13.85;2.65;;;;;;;6.94;80.10;103438.41;5049269;28;20051;-75
2022/01/21 10:31:07;;;;;;;16.88;1.75;;;;;;;7.16;79.42;103434.66;5050129;28;20037;-74
2022/01/21 10:33:41;;;;;;;13.68;2.22;;;;;;;7.26;79.31;103448.03;5051018;28;20029;-75
2022/01/21 10:36:15;;;;;;;16.00;2.20;;;;;;;7.29;79.59;103440.59;5050858;28;20506;-74
2022/01/21 10:38:46;;;;;;;22.90;2.60;;;;;;;7.54;79.27;103440.03;5050659;28;20742;-75
2022/01/21 10:41:14;;;;;;;22.85;3.13;;;;;;;7.65;79.24;103447.03;5047288;28;20057;-74
2022/01/21 10:43:40;;;;;;;19.58;3.05;;;;;;;7.69;79.28;103445.75;5050408;28;20044;-75
2022/01/21 10:46:06;;;;;;;14.05;1.38;;;;;;;7.42;81.24;103454.53;5049000;28;20071;-73
2022/01/21 10:48:58;;;;;;;19.80;2.55;;;;;;;7.08;83.10;103440.69;5049883;28;20033;-75
2022/01/21 10:51:27;;;;;;;14.50;2.33;;;;;;;7.05;84.13;103451.69;5047345;28;20045;-74
2022/01/21 10:53:57;;;;;;;12.75;2.38;;;;;;;7.27;83.31;103449.72;5051018;28;20724;-74
2022/01/21 10:56:25;;;;;;;15.50;2.58;;;;;;;7.42;83.36;103445.66;5040417;28;20033;-74
2022/01/21 10:58:53;;;;;;;16.60;2.38;;;;;;;7.48;82.80;103450.44;5036534;28;20049;-74
2022/01/21 11:01:26;;;;;;;17.77;2.80;;;;;;;7.51;82.79;103452.84;5032365;28;20037;-75
2022/01/21 11:03:56;;;;;;;21.45;3.30;;;;;;;7.76;81.89;103442.38;5044178;28;20069;-75
2022/01/21 11:06:24;;;;;;;21.80;2.63;;;;;;;7.90;82.22;103449.13;5042852;28;20039;-76
2022/01/21 11:08:50;;;;;;;16.00;2.35;;;;;;;7.82;82.56;103441.78;5050130;28;20392;-73
2022/01/21 11:11:22;;;;;;;17.38;1.83;;;;;;;7.73;82.82;103449.84;5044851;28;20037;-74
2022/01/21 11:13:47;;;;;;;29.40;2.97;;;;;;;7.64;83.26;103454.25;5050569;28;20037;-75
2022/01/21 11:16:16;;;;;;;18.20;2.15;;;;;;;7.79;82.68;103457.31;5033145;28;20033;-75
2022/01/21 11:18:50;;;;;;;13.45;2.30;;;;;;;7.73;83.05;103457.88;5031422;28;20128;-75
2022/01/21 11:21:16;;;;;;;7.80;2.25;;;;;;;7.49;83.71;103452.97;5035827;28;20369;-74
2022/01/21 11:23:42;;;;;;;10.27;2.65;;;;;;;7.31;84.80;103451.16;5048208;28;20045;-73
2022/01/21 11:26:12;;;;;;;12.88;2.10;;;;;;;7.50;83.57;103452.00;5050422;28;20079;-74
2022/01/21 11:28:37;;;;;;;30.45;2.47;;;;;;;7.84;82.68;103441.69;5049229;28;20059;-73
2022/01/21 11:31:03;;;;;;;13.18;2.05;;;;;;;7.42;83.92;103440.28;5050610;28;20045;-72
2022/01/21 11:33:28;;;;;;;13.43;2.33;;;;;;;7.63;83.19;103446.31;5051356;28;20041;-73
2022/01/21 11:35:54;;;;;;;24.17;2.95;;;;;;;7.84;82.34;103431.78;5038095;28;20137;-73
2022/01/21 11:38:23;;;;;;;17.58;3.33;;;;;;;7.63;83.15;103433.81;5031453;28;20034;-73
2022/01/21 11:40:51;;;;;;;10.50;2.60;;;;;;;7.74;82.82;103428.28;5045502;28;20057;-76
2022/01/21 11:43:17;;;;;;;23.63;3.03;;;;;;;7.77;83.07;103437.88;5041562;28;20380;-74
2022/01/21 11:51:21;;;;;;;19.23;2.45;;;;;;;7.94;81.53;103429.94;5046441;28;20060;-74
2022/01/21 11:53:52;;;;;;;11.68;1.90;;;;;;;8.11;80.32;103427.50;5031100;28;20059;-73
2022/01/21 11:56:42;;;;;;;14.50;2.92;;;;;;;7.86;81.79;103427.13;5048538;28;20041;-73
2022/01/21 11:59:23;;;;;;;11.73;2.85;;;;;;;7.98;81.47;103422.47;5047432;28;20496;-74
2022/01/21 12:01:50;;;;;;;17.40;2.25;;;;;;;7.95;81.46;103414.72;5048194;28;20044;-73
2022/01/21 12:04:41;;;;;;;13.35;2.25;;;;;;;8.08;80.74;103414.41;5047585;28;20069;-73
2022/01/21 12:07:44;;;;;;;18.90;3.65;;;;;;;8.03;80.82;103404.13;5048515;28;20388;-74
2022/01/21 12:10:31;;;;;;;16.02;2.80;;;;;;;8.15;80.37;103402.13;5048369;28;20354;-74
2022/01/21 12:13:14;;;;;;;15.75;2.17;;;;;;;8.19;80.34;103401.69;5050663;28;20397;-73
2022/01/21 12:15:54;;;;;;;19.10;2.83;;;;;;;8.08;80.15;103395.69;5044994;28;20080;-74
2022/01/21 12:20:54;;;;;;;22.90;3.03;;;;;;;7.97;81.09;103404.72;5053024;28;20116;-73
2022/01/21 12:23:22;;;;;;;20.65;2.72;;;;;;;8.09;80.33;103403.56;5052052;28;20139;-75
2022/01/21 12:26:19;;;;;;;15.65;2.55;;;;;;;7.88;80.65;103408.28;5053238;28;20036;-74
2022/01/21 12:28:52;;;;;;;12.35;2.50;;;;;;;7.83;80.40;103405.16;5053043;28;20155;-74